Castle Rock, Colorado
Current Conditions -  °F | °C
As of 7:53 AM on Sunday 23 Nov 2014 (Local Time) from KAPA Reporting Station
Overcast Overcast  
Wind Chill: 26°   Ceiling: 5000
Heat Index: 32°   Visibility: 10mi
Dew Point: 24°   Wind: 7mph
Humidity: 73%   Direction: 340°NNW
Pressure: 29.78"   Gusts: NA
Location:  39.38°N, 104.85°W
Report Text: KAPA 231453Z 34006KT 10SM SCT027 OVC050 00/M04 A2978 RMK AO2 SNE21 SLP088 P0000 60000 T00001044 51022
Loading
Personal Weather Stations






























Interactive Weather Map New forecast layout! Learn more

10-Day Weather Forecast

Advertisements
Track Severe Weather on mobile